الصفحة الرئيسية
METAR-TAF:

METAR-TAF

مطار :

مطار سيشل الدولي

فيكتوريا, ماهيه, سيشيل

دائرة عرض: 04-40S, خط طول: 055-31E, ارتفاع: 3 متر

مراقبة الطقس الحالي

تاريخ ووقت الإصدار 1ساعة و 7 دقيقة قبل الساعة 18:00UTC
ريح 2 عقدة من الجنوب/الجنوب الغربي
درجة الحرارة 27°درجة مئوية
الرطوبة 74%
ضغط 1011 hPa
الرؤية 10 كم أو أكثر
غيوم متفرقة على ارتفاع 2200 قدم

METAR: FSIA 291800Z 21002KT 9999 SCT022 27/22 Q1011 NOSIG

زمن: 23:07 (19:07 UTC)

توقعات

تاريخ ووقت الإصدار 2ساعات و 6 دقيقة قبل الساعة 17:01UTC
التوقعات صالحة من29 الساعة 18 UTC إلى 30 الساعة 18 UTC
ريح 5 عقدة من الجنوب/الجنوب الغربي
الرؤية 10 كم أو أكثر
غيوم متفرقة على ارتفاع 2100 قدم

TAF: FSIA 291701Z 2918/3018 21005KT 9999 SCT021

أرصاد الطقس والتوقعات من أكثر من 4000 مطار (تقارير الطقس للمطار METAR والتنبؤ بالطقس بالمطارTAF).

المحطات المتاحة هي النقط الصفراء والحمراء على الخريطة.

حرك المؤشر فوق النقطة لمعرفة اسم المحطة.

ثم انقر لمعرفة أرصاد وتوقعات الطقس.

لتغيير الخارطة: اضغط على الأزرار الخضراء مع رمز الصليب الأسود للتكبير. على الزر الأخضر مع شرطة للتصغير، أو على الأسهم الخضراء للخرائط المجاورة.


METAR-TAF: